createdAt,value
2024-01-31T00:00:40.201Z,75.18
2024-01-31T00:01:40.216Z,75.42
2024-01-31T00:02:40.201Z,74.56
2024-01-31T00:03:40.160Z,74.90
2024-01-31T00:04:40.224Z,75.11
2024-01-31T00:05:40.172Z,73.98
2024-01-31T00:06:40.114Z,74.70
2024-01-31T00:07:40.144Z,74.08
2024-01-31T00:08:40.116Z,73.88
2024-01-31T00:09:40.082Z,74.29
2024-01-31T00:10:40.189Z,73.36
2024-01-31T00:11:40.107Z,73.64
2024-01-31T00:12:40.099Z,73.85
2024-01-31T00:13:40.097Z,73.74
2024-01-31T00:14:40.069Z,73.85
2024-01-31T00:15:40.101Z,73.64
2024-01-31T00:16:40.085Z,73.06
2024-01-31T00:17:40.055Z,73.23
2024-01-31T00:18:40.084Z,73.13
2024-01-31T00:19:40.185Z,72.92
2024-01-31T00:20:40.013Z,73.13
2024-01-31T00:21:40.060Z,73.20
2024-01-31T00:22:40.139Z,72.92
2024-01-31T00:23:39.990Z,72.99
2024-01-31T00:24:40.003Z,72.17
2024-01-31T00:25:40.075Z,72.07
2024-01-31T00:26:40.007Z,71.77
2024-01-31T00:27:39.988Z,72.20
2024-01-31T00:28:40.087Z,72.41
2024-01-31T00:29:40.051Z,72.20
2024-01-31T00:31:49.515Z,72.07
2024-01-31T00:32:50.734Z,72.34
2024-01-31T00:33:50.881Z,71.73
2024-01-31T00:34:50.694Z,71.66
2024-01-31T00:35:50.633Z,72.17
2024-01-31T00:36:50.603Z,71.66
2024-01-31T00:37:50.677Z,72.20
2024-01-31T00:38:50.614Z,72.31
2024-01-31T00:39:50.637Z,71.97
2024-01-31T00:40:50.624Z,72.17
2024-01-31T00:41:50.570Z,72.04
2024-01-31T00:42:50.600Z,71.94
2024-01-31T00:43:50.554Z,72.17
2024-01-31T00:44:50.569Z,72.31
2024-01-31T00:45:50.547Z,72.17
2024-01-31T00:46:50.598Z,71.97
2024-01-31T00:47:50.583Z,71.66
2024-01-31T00:48:50.593Z,72.17
2024-01-31T00:49:50.585Z,73.23
2024-01-31T00:50:50.511Z,72.20
2024-01-31T00:51:50.538Z,73.03
2024-01-31T00:52:50.497Z,73.57
2024-01-31T00:53:50.637Z,73.64
2024-01-31T00:54:51.141Z,73.23
2024-01-31T00:55:50.526Z,73.23
2024-01-31T00:56:59.285Z,73.27
2024-01-31T00:58:25.676Z,73.06
2024-01-31T00:58:50.690Z,73.16
2024-01-31T01:00:31.918Z,73.27
2024-01-31T01:00:50.860Z,73.06
2024-01-31T01:01:51.406Z,72.96
2024-01-31T01:02:50.462Z,73.13
2024-01-31T01:03:50.550Z,72.41
2024-01-31T01:04:50.481Z,72.31
2024-01-31T01:05:50.476Z,72.00
2024-01-31T01:06:51.263Z,71.69
2024-01-31T01:07:50.435Z,71.90
2024-01-31T01:08:50.547Z,72.00
2024-01-31T01:09:50.408Z,71.77
2024-01-31T01:10:50.398Z,72.17
2024-01-31T01:11:50.395Z,71.56
2024-01-31T01:12:50.373Z,71.97
2024-01-31T01:13:50.414Z,71.80
2024-01-31T01:14:51.772Z,72.00
2024-01-31T01:15:50.400Z,72.28
2024-01-31T01:16:50.391Z,72.17
2024-01-31T01:17:50.420Z,72.52
2024-01-31T01:18:50.388Z,72.20
2024-01-31T01:19:50.529Z,72.61
2024-01-31T01:20:50.350Z,73.68
2024-01-31T01:21:50.292Z,74.22
2024-01-31T01:22:50.324Z,73.27
2024-01-31T01:23:52.755Z,73.78
2024-01-31T01:24:51.381Z,73.33
2024-01-31T01:25:50.354Z,73.68
2024-01-31T01:26:50.302Z,73.16
2024-01-31T01:27:50.304Z,74.19
2024-01-31T01:28:50.322Z,73.78
2024-01-31T01:29:50.338Z,73.78
2024-01-31T01:30:50.778Z,74.19
2024-01-31T01:31:50.293Z,73.44
2024-01-31T01:32:50.422Z,73.98
2024-01-31T01:33:50.293Z,73.91
2024-01-31T01:34:50.309Z,73.81
2024-01-31T01:35:50.261Z,73.71
2024-01-31T01:36:50.282Z,73.50
2024-01-31T01:37:50.345Z,73.50
2024-01-31T01:38:50.232Z,72.58
2024-01-31T01:39:50.221Z,72.24
2024-01-31T01:40:50.295Z,72.24
2024-01-31T01:41:50.191Z,71.93
2024-01-31T01:42:50.256Z,72.34
2024-01-31T01:43:50.247Z,72.34
2024-01-31T01:44:50.212Z,72.00
2024-01-31T01:45:50.190Z,71.69
2024-01-31T01:46:50.191Z,72.00
2024-01-31T01:47:50.388Z,72.00
2024-01-31T01:48:50.252Z,71.59
2024-01-31T01:49:50.255Z,71.69
2024-01-31T01:50:50.152Z,71.80
2024-01-31T01:51:50.157Z,71.90
2024-01-31T01:52:50.152Z,71.73
2024-01-31T01:53:52.069Z,71.73
2024-01-31T01:54:51.137Z,71.18
2024-01-31T01:55:50.245Z,71.18
2024-01-31T01:56:50.158Z,71.15
2024-01-31T01:57:50.096Z,70.53
2024-01-31T01:58:50.438Z,70.50
2024-01-31T01:59:50.090Z,69.68
2024-01-31T02:00:50.110Z,69.58
2024-01-31T02:01:50.109Z,69.58
2024-01-31T02:02:50.082Z,69.38
2024-01-31T02:04:25.187Z,69.48
2024-01-31T02:04:50.522Z,68.87
2024-01-31T02:05:50.175Z,69.55
2024-01-31T02:06:50.156Z,69.75
2024-01-31T02:07:50.099Z,69.17
2024-01-31T02:08:50.093Z,69.79
2024-01-31T02:09:50.021Z,69.31
2024-01-31T02:10:50.139Z,69.92
2024-01-31T02:11:50.032Z,70.98
2024-01-31T02:12:49.988Z,71.59
2024-01-31T02:13:50.004Z,72.31
2024-01-31T02:14:49.993Z,72.20
2024-01-31T02:15:49.972Z,72.20
2024-01-31T02:16:50.023Z,72.41
2024-01-31T02:17:50.056Z,72.24
2024-01-31T02:18:50.006Z,72.11
2024-01-31T02:19:50.055Z,72.55
2024-01-31T02:20:49.924Z,71.83
2024-01-31T02:21:50.006Z,71.59
2024-01-31T02:22:49.952Z,71.08
2024-01-31T02:23:49.920Z,71.18
2024-01-31T02:24:49.935Z,70.33
2024-01-31T02:25:49.959Z,70.09
2024-01-31T02:26:49.917Z,69.75
2024-01-31T02:27:49.958Z,69.38
2024-01-31T02:28:49.940Z,69.48
2024-01-31T02:29:49.886Z,69.58
2024-01-31T02:30:49.897Z,69.68
2024-01-31T02:42:39.287Z,70.20
2024-01-31T02:49:00.398Z,70.20
2024-01-31T03:14:51.541Z,72.48
2024-01-31T03:15:52.663Z,72.20
2024-01-31T03:16:52.582Z,72.11
2024-01-31T03:17:52.582Z,73.16
2024-01-31T03:18:52.647Z,73.06
2024-01-31T03:19:52.686Z,72.14
2024-01-31T03:20:52.537Z,73.06
2024-01-31T03:21:52.564Z,73.78
2024-01-31T03:22:52.520Z,74.70
2024-01-31T03:23:52.549Z,73.88
2024-01-31T03:24:52.475Z,73.95
2024-01-31T03:25:52.497Z,74.46
2024-01-31T03:26:52.503Z,74.90
2024-01-31T03:27:52.496Z,75.01
2024-01-31T03:28:52.463Z,75.28
2024-01-31T03:29:52.464Z,75.42
2024-01-31T03:30:52.574Z,76.03
2024-01-31T03:31:53.479Z,76.65
2024-01-31T03:32:52.543Z,76.40
2024-01-31T03:33:52.555Z,76.10
2024-01-31T03:34:52.476Z,75.79
2024-01-31T03:35:52.439Z,75.99
2024-01-31T03:36:52.446Z,74.97
2024-01-31T03:37:52.433Z,75.62
2024-01-31T03:38:52.399Z,76.95
2024-01-31T03:39:52.396Z,76.31
2024-01-31T03:40:52.589Z,75.89
2024-01-31T03:41:52.443Z,76.61
2024-01-31T03:42:52.402Z,76.31
2024-01-31T03:43:52.367Z,77.26
2024-01-31T03:44:52.381Z,76.95
2024-01-31T03:45:52.362Z,77.53
2024-01-31T03:46:52.386Z,76.20
2024-01-31T03:47:52.407Z,76.20
2024-01-31T03:48:52.406Z,76.81
2024-01-31T03:49:52.642Z,76.81
2024-01-31T03:50:52.361Z,76.72
2024-01-31T03:51:52.311Z,76.54
2024-01-31T03:52:53.400Z,76.95
2024-01-31T03:53:52.322Z,76.31
2024-01-31T03:54:52.352Z,76.40
2024-01-31T03:55:52.309Z,76.20
2024-01-31T03:56:52.278Z,76.31
2024-01-31T03:57:52.322Z,76.40
2024-01-31T03:58:52.294Z,75.65
2024-01-31T03:59:52.305Z,75.76
2024-01-31T04:00:52.323Z,76.47
2024-01-31T04:01:52.415Z,75.99
2024-01-31T04:02:52.261Z,76.51
2024-01-31T04:03:52.262Z,76.40
2024-01-31T04:04:52.403Z,76.20
2024-01-31T04:05:52.280Z,76.10
2024-01-31T04:06:52.226Z,76.61
2024-01-31T04:07:52.318Z,76.81
2024-01-31T04:08:52.250Z,76.27
2024-01-31T04:09:52.211Z,76.10
2024-01-31T04:10:52.299Z,76.51
2024-01-31T04:11:52.257Z,76.34
2024-01-31T04:12:52.244Z,77.36
2024-01-31T04:13:52.196Z,77.47
2024-01-31T04:14:52.233Z,77.57
2024-01-31T04:15:53.042Z,77.06
2024-01-31T04:16:52.190Z,77.47
2024-01-31T04:17:52.295Z,77.36
2024-01-31T04:18:53.232Z,77.16
2024-01-31T04:19:52.174Z,77.47
2024-01-31T04:20:52.195Z,77.29
2024-01-31T04:21:52.188Z,77.67
2024-01-31T04:22:52.183Z,77.67
2024-01-31T04:23:52.186Z,77.87
2024-01-31T04:24:52.153Z,77.91
2024-01-31T04:25:52.151Z,77.71
2024-01-31T04:26:52.099Z,77.71
2024-01-31T04:27:52.144Z,77.71
2024-01-31T04:28:52.098Z,77.91
2024-01-31T04:29:52.088Z,77.91
2024-01-31T04:30:52.120Z,78.22
2024-01-31T04:31:52.151Z,77.20
2024-01-31T04:32:53.191Z,77.47
2024-01-31T04:33:52.110Z,77.29
2024-01-31T04:34:52.199Z,77.50
2024-01-31T04:35:52.169Z,77.57
2024-01-31T04:37:27.161Z,77.16
2024-01-31T04:37:52.253Z,76.81
2024-01-31T04:38:52.213Z,76.65
2024-01-31T04:39:52.096Z,76.03
2024-01-31T04:40:52.095Z,77.06
2024-01-31T04:41:52.050Z,76.20
2024-01-31T04:42:54.254Z,76.10
2024-01-31T04:43:53.065Z,75.89
2024-01-31T04:44:52.009Z,75.69
2024-01-31T04:45:52.591Z,76.31
2024-01-31T04:46:52.028Z,75.69
2024-01-31T04:47:51.986Z,76.95
2024-01-31T04:48:52.154Z,76.24
2024-01-31T04:49:52.267Z,76.34
2024-01-31T04:50:52.011Z,77.29
2024-01-31T04:51:52.654Z,77.26
2024-01-31T04:52:52.098Z,77.02
2024-01-31T04:53:52.038Z,76.20
2024-01-31T04:54:51.970Z,75.89
2024-01-31T04:55:51.987Z,76.72
2024-01-31T04:56:51.941Z,76.10
2024-01-31T04:57:51.935Z,76.81
2024-01-31T04:58:51.930Z,76.40
2024-01-31T04:59:53.540Z,76.31
2024-01-31T05:00:52.679Z,76.51
2024-01-31T05:01:52.032Z,76.51
2024-01-31T05:02:52.657Z,76.20
2024-01-31T05:03:52.013Z,75.99
2024-01-31T05:04:52.002Z,76.20
2024-01-31T05:05:52.081Z,76.24
2024-01-31T05:06:51.872Z,76.24
2024-01-31T05:07:52.598Z,76.85
2024-01-31T05:08:51.867Z,77.50
2024-01-31T05:09:51.865Z,77.47
2024-01-31T05:10:51.881Z,77.47
2024-01-31T05:11:52.847Z,76.20
2024-01-31T05:12:51.944Z,76.85
2024-01-31T05:13:52.311Z,77.57
2024-01-31T05:14:52.872Z,77.26
2024-01-31T05:15:51.875Z,77.06
2024-01-31T05:16:51.874Z,77.33
2024-01-31T05:17:51.863Z,77.06
2024-01-31T05:18:51.861Z,76.75
2024-01-31T05:19:52.906Z,77.06
2024-01-31T05:20:52.274Z,77.26
2024-01-31T05:21:51.943Z,77.47
2024-01-31T05:22:51.967Z,77.47
2024-01-31T05:23:52.704Z,77.36
2024-01-31T05:24:51.970Z,77.36
2024-01-31T05:25:51.917Z,78.12
2024-01-31T05:26:52.047Z,78.32
2024-01-31T05:27:52.795Z,78.39
2024-01-31T05:28:51.889Z,77.77
2024-01-31T05:29:51.927Z,77.57
2024-01-31T05:30:51.883Z,77.47
2024-01-31T05:31:52.895Z,77.71
2024-01-31T05:32:53.896Z,78.02
2024-01-31T05:33:53.045Z,78.87
2024-01-31T05:34:51.854Z,78.74
2024-01-31T05:35:51.735Z,78.32
2024-01-31T05:36:51.832Z,77.77
2024-01-31T05:37:52.784Z,77.57
2024-01-31T05:38:51.752Z,77.87
2024-01-31T05:39:51.748Z,77.91
2024-01-31T05:40:51.822Z,78.12
2024-01-31T05:41:51.758Z,78.53
2024-01-31T05:42:53.829Z,78.83
2024-01-31T05:43:53.550Z,78.63
2024-01-31T05:44:51.660Z,79.04
2024-01-31T05:45:51.666Z,78.83
2024-01-31T05:46:52.582Z,78.74
2024-01-31T05:47:51.707Z,78.83
2024-01-31T05:48:51.667Z,78.53
2024-01-31T05:49:51.685Z,78.94
2024-01-31T05:50:51.646Z,78.59
2024-01-31T05:51:52.793Z,78.94
2024-01-31T05:52:51.661Z,78.70
2024-01-31T05:53:51.604Z,78.49
2024-01-31T05:54:51.579Z,77.94
2024-01-31T05:56:24.440Z,78.32
2024-01-31T05:56:54.253Z,79.00
2024-01-31T05:57:52.710Z,78.74
2024-01-31T05:58:51.594Z,78.59
2024-01-31T05:59:51.671Z,77.60
2024-01-31T06:00:51.717Z,76.03
2024-01-31T06:01:51.587Z,75.01
2024-01-31T06:02:54.259Z,75.52
2024-01-31T06:03:52.566Z,74.35
2024-01-31T06:04:51.666Z,74.15
2024-01-31T06:05:51.555Z,73.50
2024-01-31T06:06:51.565Z,74.22
2024-01-31T06:07:51.556Z,75.07
2024-01-31T06:08:51.498Z,75.69
2024-01-31T06:09:51.502Z,75.52
2024-01-31T06:10:51.595Z,74.49
2024-01-31T06:11:51.502Z,74.35
2024-01-31T06:12:51.542Z,74.05
2024-01-31T06:13:51.536Z,73.44
2024-01-31T06:14:51.542Z,73.36
2024-01-31T06:15:51.506Z,75.10
2024-01-31T06:16:51.529Z,74.08
2024-01-31T06:17:51.637Z,73.27
2024-01-31T06:18:51.456Z,75.38
2024-01-31T06:19:51.674Z,75.73
2024-01-31T06:20:51.557Z,76.27
2024-01-31T06:21:51.462Z,76.31
2024-01-31T06:22:51.493Z,75.82
2024-01-31T06:23:51.424Z,76.10
2024-01-31T06:24:51.420Z,76.20
2024-01-31T06:25:51.411Z,75.04
2024-01-31T06:26:51.384Z,75.24
2024-01-31T06:27:51.398Z,75.24
2024-01-31T06:28:51.734Z,74.36
2024-01-31T06:51:01.957Z,76.24
2024-01-31T07:10:11.165Z,79.25
2024-01-31T07:13:38.737Z,79.01
2024-01-31T07:35:23.409Z,77.74
2024-01-31T08:25:58.583Z,75.79
2024-01-31T09:23:44.488Z,71.90
2024-01-31T09:34:45.160Z,72.21
2024-01-31T09:40:21.520Z,70.68
2024-01-31T09:48:53.629Z,69.93
2024-01-31T09:59:53.661Z,69.73
2024-01-31T10:00:56.031Z,69.52
2024-01-31T10:01:55.750Z,69.62
2024-01-31T10:02:54.734Z,70.06
2024-01-31T10:11:24.750Z,68.98
2024-01-31T10:16:05.841Z,68.88
2024-01-31T10:24:27.105Z,69.38
2024-01-31T10:29:43.110Z,71.01
2024-01-31T10:37:55.977Z,71.70
2024-01-31T10:38:50.035Z,70.68
2024-01-31T11:04:29.951Z,69.05
2024-01-31T11:20:32.033Z,65.89
2024-01-31T11:32:27.224Z,67.48
2024-01-31T11:44:50.268Z,66.47
2024-01-31T12:02:49.289Z,63.68
2024-01-31T12:06:26.815Z,61.90
2024-01-31T12:13:54.672Z,62.23
2024-01-31T12:28:56.282Z,62.26
2024-01-31T12:44:19.802Z,65.17
2024-01-31T12:52:00.496Z,63.79
2024-01-31T12:56:30.911Z,64.40
2024-01-31T13:19:49.846Z,63.81
2024-01-31T13:26:16.549Z,68.52
2024-01-31T13:34:03.836Z,69.20
2024-01-31T13:38:50.966Z,69.27
2024-01-31T13:39:36.544Z,69.41
2024-01-31T13:40:39.510Z,69.75
2024-01-31T13:43:34.055Z,69.51
2024-01-31T13:53:19.697Z,68.90
2024-01-31T13:54:21.437Z,69.17
2024-01-31T14:02:40.229Z,67.54
2024-01-31T14:10:09.407Z,68.83
2024-01-31T14:10:59.557Z,68.28
2024-01-31T14:14:12.582Z,68.79
2024-01-31T14:15:12.681Z,69.65
2024-01-31T14:16:12.849Z,69.65
2024-01-31T14:24:43.963Z,68.73
2024-01-31T14:25:43.945Z,69.75
2024-01-31T14:26:44.120Z,69.78
2024-01-31T14:27:44.657Z,68.86
2024-01-31T14:51:35.369Z,69.34
2024-01-31T15:26:09.651Z,68.48
2024-01-31T15:33:35.963Z,69.10
2024-01-31T15:55:05.940Z,69.64
2024-01-31T16:05:10.608Z,69.23
2024-01-31T17:02:20.090Z,69.84
2024-01-31T17:12:49.809Z,69.32
2024-01-31T17:13:49.133Z,69.94
2024-01-31T18:30:23.483Z,69.18
2024-01-31T18:31:25.127Z,70.11
2024-01-31T18:32:26.210Z,69.70
2024-01-31T18:33:24.240Z,69.39
2024-01-31T18:34:24.502Z,69.80
2024-01-31T18:35:25.292Z,70.52
2024-01-31T18:36:24.586Z,70.21
2024-01-31T18:37:25.290Z,69.80
2024-01-31T18:38:25.967Z,70.01
2024-01-31T18:39:25.473Z,69.70
2024-01-31T18:40:24.954Z,69.39
2024-01-31T18:41:25.141Z,69.70
2024-01-31T18:42:25.030Z,69.90
2024-01-31T18:43:25.920Z,69.60
2024-01-31T18:44:24.127Z,69.09
2024-01-31T18:45:24.473Z,69.09
2024-01-31T18:46:25.512Z,69.73
2024-01-31T18:47:23.926Z,69.90
2024-01-31T18:48:31.367Z,70.04
2024-01-31T18:49:24.519Z,70.14
2024-01-31T19:30:16.992Z,70.28
2024-01-31T19:31:17.078Z,69.87
2024-01-31T19:32:16.371Z,69.53
2024-01-31T19:33:16.163Z,69.73
2024-01-31T19:34:16.008Z,69.56
2024-01-31T19:35:17.194Z,69.56
2024-01-31T19:36:18.807Z,70.10
2024-01-31T19:37:17.972Z,70.07
2024-01-31T19:38:17.015Z,69.76
2024-01-31T19:39:15.860Z,70.07
2024-01-31T19:40:18.233Z,69.46
2024-01-31T19:41:17.007Z,69.76
2024-01-31T19:42:15.817Z,69.90
2024-01-31T19:43:18.293Z,70.10
2024-01-31T19:44:15.845Z,71.27
2024-01-31T19:45:16.054Z,71.17
2024-01-31T19:46:15.807Z,72.20
2024-01-31T19:47:15.933Z,71.58
2024-01-31T19:48:17.203Z,71.34
2024-01-31T19:49:15.967Z,71.00
2024-01-31T20:12:29.372Z,72.67
2024-01-31T20:21:39.371Z,74.12
2024-01-31T20:22:37.988Z,74.36
2024-01-31T20:24:16.606Z,73.64
2024-01-31T20:25:14.921Z,74.19
2024-01-31T20:25:37.513Z,74.46
2024-01-31T20:26:37.317Z,74.05
2024-01-31T20:27:37.351Z,74.15
2024-01-31T20:28:37.193Z,74.40
2024-01-31T20:34:26.645Z,73.50
2024-01-31T20:35:27.886Z,73.05
2024-01-31T20:36:27.542Z,72.64
2024-01-31T21:12:04.098Z,73.54
2024-01-31T21:36:28.477Z,71.34
2024-01-31T22:07:31.748Z,72.58
2024-01-31T22:08:25.991Z,71.72
2024-01-31T22:09:26.137Z,71.92
2024-01-31T22:10:27.214Z,71.65
2024-01-31T22:11:27.095Z,71.96
2024-01-31T22:12:26.994Z,72.13
2024-01-31T22:13:27.138Z,71.55
2024-01-31T22:14:28.316Z,71.96
2024-01-31T22:15:27.142Z,72.68
2024-01-31T22:39:51.996Z,70.52
2024-01-31T22:40:52.136Z,70.59
2024-01-31T22:41:49.994Z,71.00
2024-01-31T22:42:50.086Z,70.69
2024-01-31T22:43:50.224Z,70.59
2024-01-31T22:44:50.221Z,71.10
2024-01-31T22:45:50.023Z,71.89
2024-01-31T22:46:50.010Z,72.47
2024-01-31T22:47:49.986Z,72.85
2024-01-31T22:48:50.072Z,72.71
2024-01-31T22:49:50.107Z,73.78
2024-01-31T22:50:49.990Z,73.36
2024-01-31T22:51:50.135Z,73.47
2024-01-31T22:52:50.316Z,73.78
2024-01-31T22:53:49.950Z,73.02
2024-01-31T22:54:57.242Z,72.44
2024-01-31T22:55:52.036Z,74.12
2024-01-31T22:56:49.901Z,73.78
2024-01-31T22:57:49.965Z,73.16
2024-01-31T22:58:49.816Z,72.81
2024-01-31T22:59:50.234Z,72.68
2024-01-31T23:00:49.958Z,72.47
2024-01-31T23:01:49.844Z,71.75
2024-01-31T23:02:49.943Z,71.20
2024-01-31T23:03:49.817Z,71.00
2024-01-31T23:04:49.777Z,71.34
2024-01-31T23:05:49.815Z,71.51
2024-01-31T23:06:50.170Z,71.31
2024-01-31T23:07:50.787Z,71.51
2024-01-31T23:08:49.761Z,71.34
2024-01-31T23:09:49.779Z,72.30
2024-01-31T23:10:49.859Z,72.61
2024-01-31T23:11:49.822Z,72.30
2024-01-31T23:12:49.854Z,72.61
2024-01-31T23:13:49.818Z,72.61
2024-01-31T23:14:49.916Z,72.20
2024-01-31T23:15:49.759Z,72.06
2024-01-31T23:16:49.827Z,72.06
2024-01-31T23:17:49.927Z,72.06
2024-01-31T23:18:49.841Z,71.55
2024-01-31T23:19:50.362Z,71.34
2024-01-31T23:20:50.298Z,71.62
2024-01-31T23:21:50.025Z,71.51
2024-01-31T23:22:50.123Z,71.48
2024-01-31T23:23:49.700Z,70.86
2024-01-31T23:24:49.998Z,70.25
2024-01-31T23:25:49.790Z,70.01
2024-01-31T23:26:49.663Z,69.73
2024-01-31T23:27:49.700Z,71.86
2024-01-31T23:28:50.006Z,72.06
2024-01-31T23:29:49.679Z,72.06
2024-01-31T23:42:00.680Z,73.02
2024-01-31T23:42:49.736Z,72.37
2024-01-31T23:43:50.760Z,72.68
2024-01-31T23:44:50.945Z,72.51
2024-01-31T23:45:50.753Z,73.43
2024-01-31T23:46:50.588Z,73.50
2024-01-31T23:47:51.036Z,72.47
2024-01-31T23:48:50.747Z,72.54
2024-01-31T23:49:50.736Z,72.64
2024-01-31T23:53:46.583Z,72.64
2024-01-31T23:54:46.710Z,72.34
2024-01-31T23:55:47.720Z,72.64
2024-01-31T23:56:47.845Z,72.09
2024-01-31T23:57:47.680Z,72.68
2024-01-31T23:58:47.646Z,72.47
2024-01-31T23:59:47.760Z,72.34
